createdAt,value
2023-05-08T00:00:18.258Z,89.71
2023-05-08T00:01:21.258Z,89.65
2023-05-08T00:02:24.411Z,89.57
2023-05-08T00:04:00.429Z,89.39
2023-05-08T00:05:05.084Z,89.50
2023-05-08T00:06:08.376Z,89.65
2023-05-08T00:07:43.424Z,89.41
2023-05-08T00:08:46.239Z,89.51
2023-05-08T00:09:49.483Z,89.62
2023-05-08T00:11:24.719Z,89.60
2023-05-08T00:12:27.502Z,89.73
2023-05-08T00:13:30.797Z,89.73
2023-05-08T00:15:05.658Z,89.68
2023-05-08T00:16:08.795Z,89.73
2023-05-08T00:17:12.508Z,89.68
2023-05-08T00:18:47.644Z,89.58
2023-05-08T00:19:50.780Z,89.56
2023-05-08T00:20:54.173Z,89.62
2023-05-08T00:22:28.994Z,89.60
2023-05-08T00:23:31.810Z,89.57
2023-05-08T00:24:34.931Z,89.17
2023-05-08T00:26:09.618Z,89.22
2023-05-08T00:27:12.561Z,89.30
2023-05-08T00:28:15.461Z,89.35
2023-05-08T00:29:50.425Z,89.44
2023-05-08T00:30:53.878Z,89.36
2023-05-08T00:31:56.890Z,89.42
2023-05-08T00:33:32.498Z,89.12
2023-05-08T00:34:35.571Z,89.19
2023-05-08T00:35:38.619Z,89.19
2023-05-08T00:37:13.364Z,89.20
2023-05-08T00:38:16.504Z,89.25
2023-05-08T00:39:19.445Z,89.27
2023-05-08T00:40:54.301Z,89.31
2023-05-08T00:41:57.362Z,89.22
2023-05-08T00:43:00.038Z,89.10
2023-05-08T00:44:34.934Z,89.04
2023-05-08T00:45:37.820Z,89.06
2023-05-08T00:46:41.178Z,89.09
2023-05-08T00:48:16.054Z,89.05
2023-05-08T00:49:19.138Z,89.01
2023-05-08T00:50:22.009Z,89.03
2023-05-08T00:51:56.878Z,88.93
2023-05-08T00:53:00.258Z,88.90
2023-05-08T00:54:03.203Z,88.86
2023-05-08T00:55:38.354Z,88.87
2023-05-08T00:56:41.708Z,88.90
2023-05-08T00:57:44.809Z,88.99
2023-05-08T00:59:19.721Z,89.17
2023-05-08T01:00:17.522Z,89.28
2023-05-08T01:01:20.694Z,89.16
2023-05-08T01:02:23.990Z,89.21
2023-05-08T01:03:59.644Z,89.23
2023-05-08T01:05:02.633Z,89.21
2023-05-08T01:06:05.287Z,89.19
2023-05-08T01:07:40.140Z,89.39
2023-05-08T01:08:43.278Z,89.52
2023-05-08T01:09:46.526Z,89.57
2023-05-08T01:11:21.403Z,89.48
2023-05-08T01:12:24.362Z,89.47
2023-05-08T01:13:27.578Z,89.45
2023-05-08T01:15:02.179Z,89.51
2023-05-08T01:16:04.902Z,89.57
2023-05-08T01:17:08.012Z,89.72
2023-05-08T01:18:43.050Z,89.83
2023-05-08T01:19:46.142Z,89.84
2023-05-08T01:20:48.922Z,89.86
2023-05-08T01:22:23.374Z,89.82
2023-05-08T01:23:26.322Z,89.71
2023-05-08T01:24:29.397Z,89.66
2023-05-08T01:26:04.274Z,89.68
2023-05-08T01:27:07.230Z,89.62
2023-05-08T01:28:10.130Z,89.68
2023-05-08T01:29:44.971Z,89.51
2023-05-08T01:30:47.965Z,89.59
2023-05-08T01:31:50.937Z,89.60
2023-05-08T01:33:25.986Z,89.61
2023-05-08T01:34:29.388Z,89.63
2023-05-08T01:35:32.292Z,89.62
2023-05-08T01:37:07.050Z,89.64
2023-05-08T01:38:10.004Z,89.71
2023-05-08T01:39:12.944Z,89.66
2023-05-08T01:40:47.616Z,89.71
2023-05-08T01:41:50.585Z,89.65
2023-05-08T01:42:53.661Z,89.67
2023-05-08T01:44:28.650Z,89.73
2023-05-08T01:45:31.990Z,89.71
2023-05-08T01:46:35.009Z,89.69
2023-05-08T01:48:10.699Z,89.70
2023-05-08T01:49:13.961Z,89.74
2023-05-08T01:50:17.677Z,89.73
2023-05-08T01:51:52.474Z,89.73
2023-05-08T01:52:55.392Z,89.76
2023-05-08T01:53:58.291Z,89.82
2023-05-08T01:55:34.093Z,89.86
2023-05-08T01:56:37.000Z,89.84
2023-05-08T01:57:40.027Z,89.84
2023-05-08T01:59:15.244Z,89.77
2023-05-08T02:00:18.446Z,89.67
2023-05-08T02:01:21.842Z,89.66
2023-05-08T02:02:25.366Z,89.63
2023-05-08T02:04:01.207Z,89.79
2023-05-08T02:05:04.874Z,89.84
2023-05-08T02:06:08.467Z,89.80
2023-05-08T02:07:43.466Z,89.75
2023-05-08T02:08:46.253Z,89.73
2023-05-08T02:09:49.040Z,89.68
2023-05-08T02:11:24.337Z,89.61
2023-05-08T02:12:27.254Z,89.60
2023-05-08T02:13:30.646Z,89.66
2023-05-08T02:15:05.776Z,89.77
2023-05-08T02:16:09.037Z,89.88
2023-05-08T02:17:12.483Z,89.95
2023-05-08T02:18:47.336Z,90.01
2023-05-08T02:19:50.335Z,90.01
2023-05-08T02:20:53.588Z,90.01
2023-05-08T02:22:28.628Z,89.99
2023-05-08T02:23:31.746Z,90.01
2023-05-08T02:24:34.781Z,89.98
2023-05-08T02:26:09.714Z,89.99
2023-05-08T02:27:12.616Z,90.02
2023-05-08T02:28:15.462Z,89.94
2023-05-08T02:29:50.081Z,89.95
2023-05-08T02:30:53.542Z,89.96
2023-05-08T02:31:56.701Z,89.89
2023-05-08T02:33:32.195Z,89.87
2023-05-08T02:34:35.489Z,89.89
2023-05-08T02:35:56.726Z,89.86
2023-05-08T02:37:31.743Z,89.85
2023-05-08T02:38:34.720Z,89.86
2023-05-08T02:39:37.752Z,89.88
2023-05-08T02:41:12.473Z,89.87
2023-05-08T02:42:15.392Z,89.86
2023-05-08T02:43:18.248Z,89.87
2023-05-08T02:44:53.199Z,89.87
2023-05-08T02:45:56.363Z,89.90
2023-05-08T02:46:59.592Z,89.92
2023-05-08T02:48:36.598Z,89.93
2023-05-08T02:49:39.632Z,89.90
2023-05-08T02:50:42.717Z,89.91
2023-05-08T02:52:17.633Z,89.90
2023-05-08T02:53:20.676Z,89.92
2023-05-08T02:54:23.792Z,90.12
2023-05-08T02:55:58.725Z,90.33
2023-05-08T02:57:01.857Z,90.36
2023-05-08T02:58:04.853Z,90.35
2023-05-08T02:59:39.786Z,90.38
2023-05-08T03:01:21.004Z,90.40
2023-05-08T03:02:24.383Z,90.42
2023-05-08T03:03:59.973Z,90.46
2023-05-08T03:05:03.049Z,90.46
2023-05-08T03:06:06.117Z,90.50
2023-05-08T03:07:40.974Z,90.57
2023-05-08T03:08:43.994Z,90.50
2023-05-08T03:09:47.149Z,90.54
2023-05-08T03:11:22.297Z,90.63
2023-05-08T03:12:25.196Z,90.66
2023-05-08T03:13:29.479Z,90.69
2023-05-08T03:15:04.257Z,90.76
2023-05-08T03:16:07.462Z,90.81
2023-05-08T03:17:10.908Z,90.83
2023-05-08T03:18:45.874Z,91.00
2023-05-08T03:19:48.846Z,91.04
2023-05-08T03:20:51.669Z,91.05
2023-05-08T03:22:26.266Z,91.04
2023-05-08T03:23:29.326Z,91.06
2023-05-08T03:24:32.492Z,91.04
2023-05-08T03:26:07.636Z,91.09
2023-05-08T03:27:10.588Z,91.02
2023-05-08T03:28:13.620Z,91.00
2023-05-08T03:29:48.454Z,91.00
2023-05-08T03:30:51.802Z,91.00
2023-05-08T03:31:54.930Z,90.99
2023-05-08T03:33:29.604Z,90.97
2023-05-08T03:34:32.389Z,91.01
2023-05-08T03:35:35.480Z,90.95
2023-05-08T03:37:10.140Z,91.00
2023-05-08T03:38:12.928Z,90.97
2023-05-08T03:39:16.191Z,90.92
2023-05-08T03:40:51.210Z,90.96
2023-05-08T03:41:54.197Z,90.93
2023-05-08T03:42:57.481Z,90.92
2023-05-08T03:44:32.314Z,91.03
2023-05-08T03:45:35.302Z,91.06
2023-05-08T03:46:38.618Z,91.00
2023-05-08T03:48:14.200Z,90.93
2023-05-08T03:49:17.254Z,90.91
2023-05-08T03:50:20.607Z,90.91
2023-05-08T03:51:55.177Z,90.87
2023-05-08T03:52:57.992Z,90.85
2023-05-08T03:54:00.889Z,90.87
2023-05-08T03:55:35.586Z,90.80
2023-05-08T03:56:38.550Z,90.78
2023-05-08T03:57:41.588Z,90.80
2023-05-08T03:59:16.392Z,90.81
2023-05-08T04:00:17.746Z,90.60
2023-05-08T04:01:20.716Z,90.61
2023-05-08T04:02:24.160Z,90.52
2023-05-08T04:04:00.994Z,90.58
2023-05-08T04:05:46.686Z,90.63
2023-05-08T04:06:56.320Z,90.71
2023-05-08T04:07:59.462Z,90.75
2023-05-08T04:09:34.928Z,90.66
2023-05-08T04:10:38.386Z,90.65
2023-05-08T04:11:41.449Z,90.73
2023-05-08T04:13:16.796Z,90.78
2023-05-08T04:14:19.871Z,90.74
2023-05-08T04:15:22.864Z,90.68
2023-05-08T04:16:58.334Z,90.62
2023-05-08T04:18:02.053Z,90.56
2023-05-08T04:19:05.407Z,90.59
2023-05-08T04:20:40.545Z,90.40
2023-05-08T04:21:43.725Z,90.49
2023-05-08T04:22:46.986Z,90.53
2023-05-08T04:24:21.957Z,90.40
2023-05-08T04:25:25.054Z,90.40
2023-05-08T04:26:28.075Z,90.40
2023-05-08T04:28:03.316Z,90.27
2023-05-08T04:29:06.494Z,90.18
2023-05-08T04:30:09.467Z,90.26
2023-05-08T04:31:44.779Z,90.32
2023-05-08T04:32:51.943Z,90.32
2023-05-08T04:33:55.163Z,90.25
2023-05-08T04:35:30.125Z,90.33
2023-05-08T04:36:33.335Z,90.23
2023-05-08T04:37:36.370Z,90.32
2023-05-08T04:39:11.494Z,90.31
2023-05-08T04:40:14.588Z,90.43
2023-05-08T04:41:17.634Z,90.43
2023-05-08T04:42:53.627Z,90.42
2023-05-08T04:43:56.792Z,90.40
2023-05-08T04:44:59.800Z,90.22
2023-05-08T04:46:35.308Z,90.30
2023-05-08T04:47:38.414Z,90.37
2023-05-08T04:48:42.122Z,90.36
2023-05-08T04:50:17.168Z,90.23
2023-05-08T04:51:20.086Z,90.25
2023-05-08T04:52:23.030Z,90.28
2023-05-08T04:53:57.858Z,90.36
2023-05-08T04:55:00.929Z,90.36
2023-05-08T04:56:04.612Z,90.33
2023-05-08T04:57:39.570Z,90.48
2023-05-08T04:58:42.592Z,90.48
2023-05-08T04:59:45.608Z,90.50
2023-05-08T05:00:17.731Z,90.56
2023-05-08T05:01:20.808Z,90.56
2023-05-08T05:02:24.290Z,90.52
2023-05-08T05:03:59.492Z,90.49
2023-05-08T05:05:02.625Z,90.47
2023-05-08T05:06:06.259Z,90.46
2023-05-08T05:07:41.012Z,90.40
2023-05-08T05:08:44.169Z,90.41
2023-05-08T05:09:47.363Z,90.41
2023-05-08T05:11:22.543Z,90.54
2023-05-08T05:12:25.644Z,90.48
2023-05-08T05:13:28.975Z,90.58
2023-05-08T05:15:03.858Z,90.65
2023-05-08T05:16:07.613Z,90.68
2023-05-08T05:17:10.905Z,90.74
2023-05-08T05:18:46.034Z,90.79
2023-05-08T05:19:50.412Z,90.82
2023-05-08T05:20:54.665Z,90.83
2023-05-08T05:22:29.566Z,90.82
2023-05-08T05:23:32.580Z,90.87
2023-05-08T05:24:35.552Z,90.83
2023-05-08T05:26:10.885Z,90.89
2023-05-08T05:27:18.780Z,90.85
2023-05-08T05:28:22.953Z,90.68
2023-05-08T05:29:57.653Z,90.68
2023-05-08T05:31:01.427Z,90.81
2023-05-08T05:32:05.305Z,90.81
2023-05-08T05:33:40.663Z,90.81
2023-05-08T05:34:43.519Z,90.64
2023-05-08T05:35:46.432Z,90.63
2023-05-08T05:37:21.077Z,90.67
2023-05-08T05:38:24.047Z,90.73
2023-05-08T05:39:27.077Z,90.56
2023-05-08T05:41:01.843Z,90.56
2023-05-08T05:42:04.646Z,90.60
2023-05-08T05:43:07.709Z,90.60
2023-05-08T05:44:42.907Z,90.29
2023-05-08T05:45:45.912Z,90.22
2023-05-08T05:46:50.456Z,90.24
2023-05-08T05:48:25.792Z,89.91
2023-05-08T05:49:29.092Z,89.51
2023-05-08T05:50:32.302Z,89.12
2023-05-08T05:52:07.160Z,89.34
2023-05-08T05:53:09.987Z,89.17
2023-05-08T05:54:13.063Z,89.01
2023-05-08T05:55:47.794Z,88.62
2023-05-08T05:56:50.702Z,88.55
2023-05-08T05:57:54.034Z,88.36
2023-05-08T05:59:28.630Z,88.22
2023-05-08T06:01:20.264Z,88.30
2023-05-08T06:02:23.493Z,88.48
2023-05-08T06:03:59.788Z,88.24
2023-05-08T06:05:03.560Z,87.77
2023-05-08T06:06:06.941Z,87.69
2023-05-08T06:07:41.904Z,87.39
2023-05-08T06:08:44.803Z,87.12
2023-05-08T06:09:47.886Z,86.74
2023-05-08T06:11:22.612Z,87.04
2023-05-08T06:12:25.535Z,87.10
2023-05-08T06:13:28.708Z,87.27
2023-05-08T06:15:03.817Z,87.11
2023-05-08T06:16:07.150Z,86.86
2023-05-08T06:17:10.901Z,86.82
2023-05-08T06:18:46.042Z,86.89
2023-05-08T06:19:49.039Z,87.11
2023-05-08T06:20:51.951Z,86.96
2023-05-08T06:22:26.982Z,87.13
2023-05-08T06:23:30.250Z,87.10
2023-05-08T06:24:33.572Z,87.02
2023-05-08T06:26:08.435Z,86.81
2023-05-08T06:27:14.464Z,86.84
2023-05-08T06:28:17.214Z,86.28
2023-05-08T06:29:52.270Z,86.47
2023-05-08T06:30:55.511Z,86.38
2023-05-08T06:31:58.646Z,86.15
2023-05-08T06:33:33.648Z,86.02
2023-05-08T06:34:36.734Z,86.72
2023-05-08T06:35:39.705Z,87.15
2023-05-08T06:37:14.711Z,87.17
2023-05-08T06:38:17.777Z,86.33
2023-05-08T06:39:21.216Z,86.55
2023-05-08T06:40:55.952Z,86.62
2023-05-08T06:42:01.642Z,86.57
2023-05-08T06:43:05.998Z,86.54
2023-05-08T06:44:41.112Z,86.63
2023-05-08T06:45:43.943Z,86.68
2023-05-08T06:46:47.403Z,85.97
2023-05-08T06:48:22.465Z,84.93
2023-05-08T06:49:25.321Z,84.94
2023-05-08T06:50:28.307Z,84.88
2023-05-08T06:52:03.928Z,85.37
2023-05-08T06:53:06.741Z,85.35
2023-05-08T06:54:09.638Z,85.46
2023-05-08T06:55:44.344Z,84.32
2023-05-08T06:56:47.285Z,84.56
2023-05-08T06:57:53.651Z,85.16
2023-05-08T06:59:48.056Z,84.69
2023-05-08T07:00:17.990Z,84.69
2023-05-08T07:01:21.218Z,84.73
2023-05-08T07:02:24.541Z,85.46
2023-05-08T07:03:59.904Z,84.94
2023-05-08T07:05:03.605Z,85.68
2023-05-08T07:06:07.762Z,86.05
2023-05-08T07:07:42.905Z,86.21
2023-05-08T07:08:46.026Z,86.14
2023-05-08T07:09:49.118Z,86.19
2023-05-08T07:11:26.329Z,85.83
2023-05-08T07:12:29.507Z,85.91
2023-05-08T07:13:33.009Z,86.00
2023-05-08T07:15:30.246Z,85.41
2023-05-08T07:16:33.775Z,85.58
2023-05-08T07:17:37.019Z,85.48
2023-05-08T07:19:12.653Z,85.40
2023-05-08T07:20:18.609Z,85.51
2023-05-08T07:21:21.577Z,85.05
2023-05-08T07:22:56.388Z,85.40
2023-05-08T07:23:59.645Z,85.18
2023-05-08T07:25:02.612Z,85.00
2023-05-08T07:26:37.920Z,84.85
2023-05-08T07:27:40.960Z,84.48
2023-05-08T07:28:47.344Z,83.96
2023-05-08T07:30:22.267Z,84.56
2023-05-08T07:31:25.590Z,84.94
2023-05-08T07:32:29.215Z,85.16
2023-05-08T07:34:04.362Z,84.90
2023-05-08T07:35:09.602Z,85.04
2023-05-08T07:36:13.794Z,84.76
2023-05-08T07:37:48.427Z,84.95
2023-05-08T07:38:51.198Z,85.03
2023-05-08T07:39:54.199Z,84.64
2023-05-08T07:41:29.049Z,84.89
2023-05-08T07:42:34.561Z,85.09
2023-05-08T07:43:37.584Z,84.39
2023-05-08T07:45:27.755Z,83.72
2023-05-08T07:46:30.662Z,83.31
2023-05-08T07:47:34.078Z,83.26
2023-05-08T07:49:09.768Z,82.15
2023-05-08T07:50:12.741Z,81.17
2023-05-08T07:51:15.947Z,81.86
2023-05-08T07:52:52.989Z,81.13
2023-05-08T07:53:55.808Z,81.63
2023-05-08T07:54:58.595Z,81.87
2023-05-08T07:56:33.268Z,82.31
2023-05-08T07:57:36.389Z,82.92
2023-05-08T07:58:39.450Z,80.89
2023-05-08T08:00:17.512Z,81.78
2023-05-08T08:01:20.512Z,82.39
2023-05-08T08:02:23.818Z,82.37
2023-05-08T08:04:00.338Z,82.31
2023-05-08T08:05:07.237Z,82.17
2023-05-08T08:06:10.871Z,81.99
2023-05-08T08:07:45.613Z,81.26
2023-05-08T08:08:48.772Z,81.33
2023-05-08T08:09:51.756Z,81.71
2023-05-08T08:11:26.476Z,82.06
2023-05-08T08:12:29.566Z,82.65
2023-05-08T08:13:33.021Z,82.55
2023-05-08T08:15:07.652Z,83.34
2023-05-08T08:16:10.863Z,83.51
2023-05-08T08:17:14.103Z,83.61
2023-05-08T08:18:53.308Z,83.87
2023-05-08T08:19:56.328Z,83.58
2023-05-08T08:20:59.343Z,83.79
2023-05-08T08:22:34.139Z,82.51
2023-05-08T08:23:37.236Z,84.24
2023-05-08T08:24:40.426Z,83.39
2023-05-08T08:26:18.543Z,83.11
2023-05-08T08:27:21.865Z,83.29
2023-05-08T08:28:24.812Z,82.96
2023-05-08T08:30:18.076Z,83.49
2023-05-08T08:31:21.940Z,83.43
2023-05-08T08:32:25.305Z,83.13
2023-05-08T08:34:00.381Z,82.84
2023-05-08T08:35:03.804Z,83.05
2023-05-08T08:36:07.937Z,82.98
2023-05-08T08:37:43.286Z,82.81
2023-05-08T08:38:46.426Z,82.89
2023-05-08T08:39:53.062Z,83.43
2023-05-08T08:41:28.046Z,83.42
2023-05-08T08:42:31.358Z,83.27
2023-05-08T08:43:34.535Z,83.20
2023-05-08T08:45:09.494Z,83.45
2023-05-08T08:46:13.158Z,83.62
2023-05-08T08:47:16.537Z,83.57
2023-05-08T08:48:51.575Z,83.05
2023-05-08T08:49:54.464Z,83.11
2023-05-08T08:51:00.639Z,82.92
2023-05-08T08:52:35.483Z,84.00
2023-05-08T08:53:38.499Z,83.39
2023-05-08T08:54:41.576Z,83.39
2023-05-08T08:56:16.465Z,82.77
2023-05-08T08:57:19.412Z,83.85
2023-05-08T08:58:22.697Z,83.85
2023-05-08T08:59:58.585Z,83.36
2023-05-08T09:00:18.261Z,83.36
2023-05-08T09:01:21.266Z,83.27
2023-05-08T09:02:24.735Z,83.55
2023-05-08T09:04:01.339Z,83.18
2023-05-08T09:05:05.037Z,83.51
2023-05-08T09:06:08.084Z,83.59
2023-05-08T09:07:43.043Z,81.97
2023-05-08T09:08:46.130Z,81.46
2023-05-08T09:09:49.376Z,81.99
2023-05-08T09:11:24.436Z,81.99
2023-05-08T09:12:27.674Z,81.75
2023-05-08T09:13:31.231Z,81.93
2023-05-08T09:15:06.422Z,82.92
2023-05-08T09:16:10.363Z,82.52
2023-05-08T09:17:13.819Z,82.72
2023-05-08T09:18:48.786Z,82.40
2023-05-08T09:19:51.574Z,81.97
2023-05-08T09:20:55.250Z,81.60
2023-05-08T09:22:29.939Z,82.75
2023-05-08T09:23:32.726Z,82.23
2023-05-08T09:24:36.796Z,82.23
2023-05-08T09:26:11.552Z,81.88
2023-05-08T09:27:14.746Z,81.97
2023-05-08T09:28:17.703Z,82.51
2023-05-08T09:29:52.933Z,82.17
2023-05-08T09:30:56.359Z,81.46
2023-05-08T09:31:59.584Z,81.88
2023-05-08T09:33:35.070Z,82.05
2023-05-08T09:34:38.170Z,81.78
2023-05-08T09:35:41.178Z,81.63
2023-05-08T09:37:15.848Z,82.16
2023-05-08T09:38:18.728Z,81.61
2023-05-08T09:39:21.794Z,82.19
2023-05-08T09:40:56.459Z,81.71
2023-05-08T09:41:59.322Z,81.79
2023-05-08T09:43:02.234Z,81.96
2023-05-08T09:44:37.062Z,81.21
2023-05-08T09:45:40.318Z,81.25
2023-05-08T09:46:43.655Z,81.05
2023-05-08T09:48:18.454Z,79.71
2023-05-08T09:49:21.681Z,79.33
2023-05-08T09:50:24.747Z,79.66
2023-05-08T09:52:01.590Z,80.69
2023-05-08T09:53:04.585Z,80.69
2023-05-08T09:54:07.402Z,78.93
2023-05-08T09:55:42.061Z,78.79
2023-05-08T09:56:45.531Z,78.31
2023-05-08T09:57:48.441Z,79.01
2023-05-08T09:59:23.878Z,79.17
2023-05-08T10:01:21.257Z,77.60
2023-05-08T10:02:25.070Z,79.04
2023-05-08T10:04:00.355Z,79.65
2023-05-08T10:05:04.230Z,79.65
2023-05-08T10:06:07.783Z,79.91
2023-05-08T10:07:42.797Z,78.91
2023-05-08T10:08:45.914Z,78.59
2023-05-08T10:09:56.601Z,79.24
2023-05-08T10:11:32.160Z,79.64
2023-05-08T10:12:35.112Z,79.03
2023-05-08T10:13:38.339Z,78.85
2023-05-08T10:15:13.175Z,78.17
2023-05-08T10:16:16.299Z,77.58
2023-05-08T10:17:19.534Z,78.67
2023-05-08T10:18:54.760Z,78.23
2023-05-08T10:19:58.005Z,77.99
2023-05-08T10:21:02.328Z,76.91
2023-05-08T10:22:37.386Z,76.91
2023-05-08T10:23:40.624Z,76.80
2023-05-08T10:24:43.644Z,76.70
2023-05-08T10:26:18.240Z,75.32
2023-05-08T10:27:34.205Z,76.31
2023-05-08T10:28:37.102Z,76.89
2023-05-08T10:30:11.881Z,77.11
2023-05-08T10:31:15.365Z,77.14
2023-05-08T10:32:18.848Z,77.80
2023-05-08T10:33:54.427Z,78.79
2023-05-08T10:34:57.451Z,78.94
2023-05-08T10:36:00.678Z,78.49
2023-05-08T10:37:35.538Z,78.35
2023-05-08T10:38:38.556Z,77.86
2023-05-08T10:39:41.765Z,78.05
2023-05-08T10:41:16.914Z,77.05
2023-05-08T10:42:19.809Z,77.72
2023-05-08T10:43:22.775Z,78.67
2023-05-08T10:44:57.513Z,78.48
2023-05-08T10:46:00.625Z,78.36
2023-05-08T10:47:04.087Z,77.82
2023-05-08T10:48:39.548Z,75.97
2023-05-08T10:49:42.416Z,76.15
2023-05-08T10:50:45.480Z,76.31
2023-05-08T10:52:20.609Z,75.56
2023-05-08T10:53:23.512Z,74.63
2023-05-08T10:54:28.002Z,76.09
2023-05-08T10:56:03.902Z,75.81
2023-05-08T10:57:06.929Z,74.80
2023-05-08T10:58:09.819Z,74.62
2023-05-08T10:59:44.553Z,74.60
2023-05-08T11:00:18.019Z,74.42
2023-05-08T11:01:21.050Z,75.67
2023-05-08T11:02:24.572Z,72.55
2023-05-08T11:04:13.242Z,75.03
2023-05-08T11:05:16.863Z,74.90
2023-05-08T11:06:19.980Z,75.28
2023-05-08T11:07:54.797Z,75.70
2023-05-08T11:09:00.467Z,73.68
2023-05-08T11:10:04.298Z,73.70
2023-05-08T11:11:39.504Z,72.58
2023-05-08T11:12:42.446Z,74.42
2023-05-08T11:13:45.932Z,73.39
2023-05-08T11:15:20.852Z,72.74
2023-05-08T11:16:24.085Z,73.59
2023-05-08T11:17:27.713Z,73.59
2023-05-08T11:19:02.626Z,75.04
2023-05-08T11:20:05.553Z,75.08
2023-05-08T11:21:10.784Z,75.31
2023-05-08T11:22:45.518Z,75.37
2023-05-08T11:23:48.318Z,75.46
2023-05-08T11:24:51.502Z,75.18
2023-05-08T11:26:26.617Z,74.17
2023-05-08T11:27:29.591Z,73.49
2023-05-08T11:28:34.152Z,74.62
2023-05-08T11:30:09.199Z,74.98
2023-05-08T11:31:12.801Z,75.94
2023-05-08T11:32:16.319Z,76.22
2023-05-08T11:33:51.289Z,76.08
2023-05-08T11:34:54.281Z,75.21
2023-05-08T11:35:57.282Z,74.62
2023-05-08T11:37:31.861Z,75.17
2023-05-08T11:38:34.710Z,76.54
2023-05-08T11:39:37.581Z,76.79
2023-05-08T11:41:12.604Z,75.57
2023-05-08T11:42:16.047Z,74.84
2023-05-08T11:43:19.297Z,74.93
2023-05-08T11:44:55.702Z,75.17
2023-05-08T11:45:58.781Z,76.12
2023-05-08T11:47:02.272Z,76.17
2023-05-08T11:48:37.981Z,76.13
2023-05-08T11:49:41.043Z,75.61
2023-05-08T11:50:43.997Z,75.91
2023-05-08T11:52:18.826Z,74.49
2023-05-08T11:53:21.737Z,75.45
2023-05-08T11:54:24.711Z,75.77
2023-05-08T11:55:59.620Z,74.44
2023-05-08T11:57:02.506Z,74.22
2023-05-08T11:58:05.439Z,74.59
2023-05-08T11:59:40.367Z,75.15
2023-05-08T12:01:22.049Z,72.62
2023-05-08T12:02:41.106Z,72.27
2023-05-08T12:04:17.771Z,73.50
2023-05-08T12:05:22.041Z,72.92
2023-05-08T12:06:24.981Z,71.88
2023-05-08T12:08:00.013Z,71.73
2023-05-08T12:09:03.134Z,72.10
2023-05-08T12:10:05.957Z,71.11
2023-05-08T12:11:41.744Z,71.61
2023-05-08T12:12:44.837Z,72.52
2023-05-08T12:13:48.090Z,73.41
2023-05-08T12:15:22.964Z,72.80
2023-05-08T12:16:26.117Z,73.63
2023-05-08T12:17:29.999Z,73.46
2023-05-08T12:19:05.305Z,72.48
2023-05-08T12:20:08.548Z,72.75
2023-05-08T12:21:14.521Z,72.64
2023-05-08T12:22:49.420Z,73.55
2023-05-08T12:23:52.456Z,73.63
2023-05-08T12:24:55.495Z,76.07
2023-05-08T12:26:30.516Z,76.49
2023-05-08T12:27:33.631Z,76.77
2023-05-08T12:28:36.708Z,77.01
2023-05-08T12:30:11.499Z,78.05
2023-05-08T12:31:15.933Z,79.57
2023-05-08T12:32:19.517Z,79.34
2023-05-08T12:33:57.550Z,80.44
2023-05-08T12:35:00.629Z,80.49
2023-05-08T12:36:03.795Z,81.53
2023-05-08T12:37:38.734Z,82.36
2023-05-08T12:38:41.799Z,81.83
2023-05-08T12:39:44.954Z,82.93
2023-05-08T12:41:19.650Z,83.13
2023-05-08T12:42:22.506Z,83.56
2023-05-08T12:43:25.483Z,83.94
2023-05-08T12:45:00.431Z,83.66
2023-05-08T12:46:03.551Z,83.66
2023-05-08T12:47:07.084Z,84.29
2023-05-08T12:48:42.328Z,84.39
2023-05-08T12:49:45.330Z,84.86
2023-05-08T12:50:48.533Z,84.61
2023-05-08T12:52:23.413Z,85.05
2023-05-08T12:53:26.496Z,85.76
2023-05-08T12:54:29.698Z,85.90
2023-05-08T12:56:04.683Z,86.13
2023-05-08T12:57:07.587Z,86.55
2023-05-08T12:58:14.764Z,86.55
2023-05-08T12:59:50.595Z,85.98
2023-05-08T13:00:18.324Z,85.98
2023-05-08T13:01:21.441Z,85.67
2023-05-08T13:02:24.975Z,85.78
2023-05-08T13:04:13.991Z,85.81
2023-05-08T13:05:17.580Z,85.26
2023-05-08T13:06:20.514Z,85.87
2023-05-08T13:07:55.700Z,85.84
2023-05-08T13:08:58.726Z,85.93
2023-05-08T13:10:02.027Z,86.13
2023-05-08T13:11:41.292Z,86.18
2023-05-08T13:12:44.692Z,86.13
2023-05-08T13:13:48.182Z,86.73
2023-05-08T13:15:23.137Z,86.75
2023-05-08T13:16:26.264Z,86.69
2023-05-08T13:17:32.648Z,87.45
2023-05-08T13:19:07.474Z,85.57
2023-05-08T13:20:12.129Z,85.37
2023-05-08T13:21:15.358Z,85.47
2023-05-08T13:22:51.788Z,85.82
2023-05-08T13:23:54.826Z,84.77
2023-05-08T13:24:57.844Z,85.02
2023-05-08T13:26:33.332Z,84.96
2023-05-08T13:27:36.308Z,85.67
2023-05-08T13:28:39.475Z,85.35
2023-05-08T13:30:15.396Z,85.18
2023-05-08T13:31:18.750Z,85.11
2023-05-08T13:32:22.019Z,85.60
2023-05-08T13:33:57.028Z,84.63
2023-05-08T13:35:05.857Z,85.35
2023-05-08T13:36:09.527Z,84.73
2023-05-08T13:37:44.290Z,84.59
2023-05-08T13:38:47.326Z,84.33
2023-05-08T13:39:50.586Z,85.14
2023-05-08T13:41:25.643Z,84.20
2023-05-08T13:42:29.004Z,84.25
2023-05-08T13:43:32.173Z,84.35
2023-05-08T13:45:07.205Z,84.37
2023-05-08T13:46:12.839Z,84.80
2023-05-08T13:47:16.150Z,84.72
2023-05-08T13:48:51.266Z,84.49
2023-05-08T13:49:54.136Z,84.51
2023-05-08T13:50:56.969Z,83.74
2023-05-08T13:52:31.828Z,83.79
2023-05-08T13:53:35.929Z,83.84
2023-05-08T13:54:39.053Z,84.25
2023-05-08T13:56:13.680Z,84.20
2023-05-08T13:57:16.764Z,84.51
2023-05-08T13:58:19.846Z,83.66
2023-05-08T13:59:55.092Z,84.70
2023-05-08T14:00:18.285Z,84.70
2023-05-08T14:01:32.886Z,84.76
2023-05-08T14:02:36.507Z,84.85
2023-05-08T14:04:16.732Z,83.81
2023-05-08T14:05:20.086Z,83.27
2023-05-08T14:06:23.146Z,82.91
2023-05-08T14:07:58.000Z,82.88
2023-05-08T14:09:03.010Z,82.01
2023-05-08T14:10:05.970Z,82.45
2023-05-08T14:11:41.009Z,83.32
2023-05-08T14:12:44.071Z,83.25
2023-05-08T14:13:47.626Z,82.80
2023-05-08T14:15:26.875Z,82.20
2023-05-08T14:16:35.697Z,81.27
2023-05-08T14:17:39.375Z,80.14
2023-05-08T14:19:14.706Z,80.34
2023-05-08T14:20:18.056Z,80.44
2023-05-08T14:21:21.076Z,79.76
2023-05-08T14:22:59.589Z,79.25
2023-05-08T14:24:02.840Z,78.44
2023-05-08T14:25:05.758Z,79.27
2023-05-08T14:26:42.262Z,79.42
2023-05-08T14:27:45.477Z,77.92
2023-05-08T14:28:48.626Z,78.40
2023-05-08T14:30:23.228Z,77.90
2023-05-08T14:31:26.278Z,77.57
2023-05-08T14:32:30.025Z,78.75
2023-05-08T14:34:05.338Z,78.91
2023-05-08T14:35:08.533Z,78.92
2023-05-08T14:36:12.248Z,79.28
2023-05-08T14:37:47.068Z,78.01
2023-05-08T14:38:50.365Z,78.43
2023-05-08T14:39:53.382Z,77.43
2023-05-08T14:41:28.559Z,79.49
2023-05-08T14:43:04.371Z,77.41
2023-05-08T14:44:07.416Z,78.66
2023-05-08T14:45:42.579Z,76.93
2023-05-08T14:46:46.014Z,75.12
2023-05-08T14:47:49.571Z,76.03
2023-05-08T15:00:18.278Z,77.31
2023-05-08T15:01:21.526Z,75.70
2023-05-08T15:02:24.918Z,75.20
2023-05-08T15:04:00.575Z,75.24
2023-05-08T15:05:08.265Z,76.18
2023-05-08T15:06:18.206Z,75.35
2023-05-08T15:07:53.327Z,74.79
2023-05-08T15:08:56.373Z,75.07
2023-05-08T15:09:59.357Z,75.69
2023-05-08T15:11:34.510Z,75.97
2023-05-08T15:12:37.587Z,75.22
2023-05-08T15:13:40.799Z,74.05
2023-05-08T15:15:16.176Z,75.29
2023-05-08T15:16:19.617Z,74.71
2023-05-08T15:17:23.426Z,73.28
2023-05-08T15:18:58.535Z,74.67
2023-05-08T15:20:01.579Z,73.88
2023-05-08T15:21:04.739Z,73.53
2023-05-08T15:22:39.560Z,72.90
2023-05-08T15:23:42.697Z,73.84
2023-05-08T15:24:45.872Z,74.68
2023-05-08T15:26:20.806Z,74.96
2023-05-08T15:27:23.706Z,74.11
2023-05-08T15:28:26.708Z,71.89
2023-05-08T15:30:01.604Z,73.13
2023-05-08T15:31:04.743Z,72.53
2023-05-08T15:32:08.371Z,72.30
2023-05-08T15:33:43.991Z,72.94
2023-05-08T15:34:47.064Z,73.86
2023-05-08T15:35:49.955Z,73.17
2023-05-08T15:37:24.549Z,74.12
2023-05-08T15:38:27.540Z,74.32
2023-05-08T15:39:30.509Z,74.38
2023-05-08T15:41:05.300Z,73.88
2023-05-08T15:42:12.109Z,74.66
2023-05-08T15:43:14.873Z,74.77
2023-05-08T15:45:00.689Z,74.87
2023-05-08T15:46:04.383Z,74.69
2023-05-08T15:47:07.717Z,73.43
2023-05-08T15:48:42.858Z,72.07
2023-05-08T15:49:48.874Z,73.06
2023-05-08T15:50:51.922Z,74.25
2023-05-08T15:52:26.964Z,74.46
2023-05-08T15:53:29.983Z,74.72
2023-05-08T15:54:33.064Z,75.10
2023-05-08T15:56:07.718Z,75.91
2023-05-08T15:57:10.758Z,75.82
2023-05-08T15:58:13.882Z,76.07
2023-05-08T15:59:48.548Z,76.51
2023-05-08T16:00:17.516Z,76.86
2023-05-08T16:01:20.461Z,76.74
2023-05-08T16:02:24.063Z,77.03
2023-05-08T16:04:00.225Z,76.86